»·PEaware :: SWA250 KSLC-KJAC

SWA250 :: KSLC-KJAC

FLIGHT INFORMATION

Flight Status: Arrived
Operator:
Southwest Airlines
More flights by this operator :: More flights under this callsign
Pilot: Anonymous 13363 (13363)
Aircraft: BOEING 737-300
(B733)
More flights by this aircraft type
Origin: KSLC Salt Lake City Intl
United States
Destination: KJAC Jackson Hole
United States
More flights between these airports :: More routes between these airports
Route: +NSIGN5 HOLTR
File this flight plan on PilotEdge
Remarks:
Altitude:
(Current/Filed)
25,000ft
Speed:
(Current/Filed)
410kts
Departed: 10-Feb-18 05:03 PM
Arrived: 10-Feb-18 05:39 PM
Distance/Time
Traveled:
178nm/0:36
Distance/Time
To Go:
Arrived

Flight Plot

Page will automatically refresh every two minutes.

Flight plan parsing failed; only flown route is shown


Map Options




Map Legend


Flown Route
Filed Route
Departure Airport
Arrival Airport
Navaid (VOR, NDB)
Fix

Horizontal Profiles

Position Reports

Time Latitude Longitude Heading Altitude Ground
Speed
10-Feb-18 16:42 40.787034 -111.977942 313 4234ft 0kts
10-Feb-18 16:48 40.787034 -111.977942 313 4234ft 0kts
10-Feb-18 16:49 40.787034 -111.977942 313 4234ft 0kts
10-Feb-18 16:49 40.787034 -111.977942 313 4234ft 0kts
10-Feb-18 16:51 40.787034 -111.977942 313 4234ft 0kts
10-Feb-18 16:51 40.787034 -111.977942 313 4234ft 0kts
10-Feb-18 16:53 40.787034 -111.977942 313 4234ft 0kts
10-Feb-18 16:53 40.787034 -111.977942 313 4234ft 0kts
10-Feb-18 16:54 40.787034 -111.977942 313 4234ft 0kts
10-Feb-18 16:55 40.787034 -111.977942 313 4234ft 0kts
10-Feb-18 16:56 40.787034 -111.977942 313 4234ft 0kts
10-Feb-18 16:57 40.786871 -111.977712 313 4234ft 2kts
10-Feb-18 16:58 40.786342 -111.977525 33 4234ft 2kts
10-Feb-18 16:59 40.786168 -111.977957 84 4234ft 0kts
10-Feb-18 17:00 40.786168 -111.977956 84 4234ft 0kts
10-Feb-18 17:01 40.786168 -111.977956 84 4234ft 0kts
10-Feb-18 17:02 40.786168 -111.977956 84 4234ft 0kts
10-Feb-18 17:03 40.786171 -111.977912 84 4234ft 0kts
10-Feb-18 17:04 40.785947 -111.976699 158 4234ft 11kts
10-Feb-18 17:05 40.781634 -111.976179 166 4234ft 19kts
10-Feb-18 17:06 40.775968 -111.974946 172 4234ft 22kts
10-Feb-18 17:07 40.774787 -111.974797 161 4234ft 0kts
10-Feb-18 17:08 40.775264 -111.973200 1 4234ft 16kts
10-Feb-18 17:09 40.804570 -111.976121 354 4891ft 172kts
10-Feb-18 17:10 40.852382 -111.979986 352 7261ft 180kts
10-Feb-18 17:11 40.908430 -111.992498 352 8556ft 233kts
10-Feb-18 17:13 40.979903 -112.000581 352 9285ft 309kts
10-Feb-18 17:14 41.067120 -112.010152 8 11354ft 326kts
10-Feb-18 17:15 41.135520 -111.940806 41 13426ft 344kts
10-Feb-18 17:16 41.201963 -111.848465 41 15548ft 355kts
10-Feb-18 17:17 41.283978 -111.783571 21 17615ft 354kts
10-Feb-18 17:18 41.371174 -111.720971 20 19680ft 363kts
10-Feb-18 17:19 41.465242 -111.679928 9 21827ft 365kts
10-Feb-18 17:20 41.562736 -111.641216 9 23814ft 374kts
10-Feb-18 17:21 41.662881 -111.601251 8 25019ft 387kts
10-Feb-18 17:22 41.765005 -111.560318 8 25001ft 388kts
10-Feb-18 17:23 41.868585 -111.531287 1 25003ft 381kts
10-Feb-18 17:24 41.972869 -111.507908 2 24982ft 390kts
10-Feb-18 17:25 42.084328 -111.482684 2 24993ft 417kts
10-Feb-18 17:26 42.188842 -111.458917 2 25006ft 419kts
10-Feb-18 17:27 42.303297 -111.431758 8 24965ft 431kts
10-Feb-18 17:28 42.412479 -111.375168 12 23561ft 413kts
10-Feb-18 17:29 42.512401 -111.323005 12 21508ft 392kts
10-Feb-18 17:30 42.614203 -111.269811 12 19392ft 388kts
10-Feb-18 17:31 42.712606 -111.218247 12 17189ft 373kts
10-Feb-18 17:32 42.804282 -111.164280 16 15011ft 358kts
10-Feb-18 17:33 42.893178 -111.121128 16 13957ft 335kts
10-Feb-18 17:34 42.981600 -111.082840 16 14024ft 337kts
10-Feb-18 17:35 43.069769 -111.044049 15 14039ft 332kts
10-Feb-18 17:36 43.152443 -111.001964 16 13982ft 354kts
10-Feb-18 17:37 43.239065 -110.946961 26 13350ft 338kts
10-Feb-18 17:38 43.320625 -110.887460 26 12272ft 337kts
10-Feb-18 17:39 43.403395 -110.848429 11 11852ft 319kts
10-Feb-18 17:40 43.483103 -110.822284 10 11283ft 294kts
10-Feb-18 17:41 43.557964 -110.797248 11 10462ft 260kts
10-Feb-18 17:42 43.624492 -110.771478 17 9014ft 241kts
10-Feb-18 17:43 43.678156 -110.744863 45 8487ft 182kts
10-Feb-18 17:44 43.657269 -110.711542 211 7273ft 147kts
10-Feb-18 17:45 43.620343 -110.731404 203 6592ft 139kts
10-Feb-18 17:46 43.599530 -110.740642 110 6458ft 12kts
10-Feb-18 17:47 43.600189 -110.739590 16 6458ft 4kts
10-Feb-18 17:48 43.603213 -110.737801 78 6458ft 1kts
10-Feb-18 17:49 43.603096 -110.737270 109 6458ft 0kts

Navigation Log

Ident Type
Flight plan parsing failed, navigation log unavailable